createdAt,value
2022-12-18T00:00:08.230Z,102079.38
2022-12-18T00:02:35.296Z,102089.78
2022-12-18T00:05:02.217Z,102101.16
2022-12-18T00:07:29.062Z,102106.47
2022-12-18T00:09:56.008Z,102109.16
2022-12-18T00:12:22.759Z,102094.28
2022-12-18T00:14:52.025Z,102109.16
2022-12-18T00:17:18.904Z,102107.44
2022-12-18T00:19:48.579Z,102103.03
2022-12-18T00:22:15.333Z,102090.84
2022-12-18T00:24:42.083Z,102093.44
2022-12-18T00:27:11.620Z,102091.59
2022-12-18T00:29:38.337Z,102099.44
2022-12-18T00:32:05.217Z,102109.16
2022-12-18T00:34:31.913Z,102116.19
2022-12-18T00:36:58.760Z,102118.81
2022-12-18T00:39:25.591Z,102113.69
2022-12-18T00:42:10.816Z,102117.28
2022-12-18T00:44:40.710Z,102116.47
2022-12-18T00:47:07.534Z,102126.97
2022-12-18T00:49:34.475Z,102113.00
2022-12-18T00:52:01.316Z,102119.13
2022-12-18T00:54:28.626Z,102103.44
2022-12-18T00:56:57.639Z,102116.50
2022-12-18T00:59:24.309Z,102113.84
2022-12-18T01:01:51.108Z,102109.44
2022-12-18T01:04:17.980Z,102105.97
2022-12-18T01:06:47.376Z,102115.59
2022-12-18T01:09:17.414Z,102107.63
2022-12-18T01:11:44.115Z,102095.44
2022-12-18T01:14:11.004Z,102106.84
2022-12-18T01:16:37.809Z,102120.81
2022-12-18T01:19:04.557Z,102119.91
2022-12-18T01:21:31.551Z,102127.78
2022-12-18T01:23:58.652Z,102121.63
2022-12-18T01:26:26.844Z,102112.88
2022-12-18T01:28:57.594Z,102118.22
2022-12-18T01:31:34.674Z,102120.78
2022-12-18T01:34:05.024Z,102116.41
2022-12-18T01:36:39.921Z,102122.44
2022-12-18T01:39:25.402Z,102121.66
2022-12-18T01:42:04.023Z,102127.84
2022-12-18T01:45:14.721Z,102141.84
2022-12-18T01:48:10.206Z,102160.19
2022-12-18T01:50:45.995Z,102162.06
2022-12-18T01:53:21.785Z,102162.88
2022-12-18T01:55:56.041Z,102162.88
2022-12-18T01:58:50.448Z,102162.06
2022-12-18T02:01:18.090Z,102153.31
2022-12-18T02:03:48.894Z,102158.59
2022-12-18T02:06:38.858Z,102163.91
2022-12-18T02:09:49.187Z,102164.66
2022-12-18T02:12:43.428Z,102161.16
2022-12-18T02:15:47.208Z,102155.94
2022-12-18T02:18:32.645Z,102163.78
2022-12-18T02:21:56.604Z,102155.06
2022-12-18T02:24:56.958Z,102172.56
2022-12-18T02:27:24.281Z,102176.22
2022-12-18T02:29:59.614Z,102164.03
2022-12-18T02:32:42.570Z,102170.06
2022-12-18T02:35:22.173Z,102163.97
2022-12-18T02:37:55.695Z,102160.44
2022-12-18T02:40:28.552Z,102163.94
2022-12-18T02:42:56.341Z,102168.34
2022-12-18T02:45:23.147Z,102167.47
2022-12-18T02:47:51.705Z,102168.31
2022-12-18T02:51:13.749Z,102170.13
2022-12-18T02:53:59.673Z,102172.75
2022-12-18T02:56:49.679Z,102172.69
2022-12-18T02:59:38.434Z,102160.50
2022-12-18T03:02:24.817Z,102168.34
2022-12-18T03:05:11.950Z,102170.03
2022-12-18T03:08:25.194Z,102158.69
2022-12-18T03:11:09.531Z,102170.00
2022-12-18T03:13:59.431Z,102161.25
2022-12-18T03:16:33.252Z,102172.66
2022-12-18T03:19:21.176Z,102167.31
2022-12-18T03:21:56.083Z,102167.34
2022-12-18T03:24:29.901Z,102162.78
2022-12-18T03:27:07.636Z,102148.88
2022-12-18T03:29:53.452Z,102145.41
2022-12-18T03:32:43.586Z,102157.66
2022-12-18T03:35:18.277Z,102157.66
2022-12-18T03:37:45.255Z,102161.09
2022-12-18T03:40:12.924Z,102150.69
2022-12-18T03:43:12.744Z,102157.69
2022-12-18T03:45:54.163Z,102160.28
2022-12-18T03:48:47.434Z,102143.66
2022-12-18T03:51:48.537Z,102147.16
2022-12-18T03:54:18.112Z,102155.06
2022-12-18T03:57:01.740Z,102164.78
2022-12-18T03:59:31.812Z,102158.59
2022-12-18T04:02:05.053Z,102152.50
2022-12-18T04:04:36.501Z,102148.22
2022-12-18T04:07:05.592Z,102150.00
2022-12-18T04:09:41.636Z,102135.19
2022-12-18T04:12:10.181Z,102134.31
2022-12-18T04:14:37.046Z,102143.91
2022-12-18T04:17:04.867Z,102132.53
2022-12-18T04:19:31.856Z,102136.88
2022-12-18T04:21:58.884Z,102138.59
2022-12-18T04:24:25.710Z,102135.16
2022-12-18T04:26:52.892Z,102145.69
2022-12-18T04:29:19.686Z,102141.31
2022-12-18T04:31:49.755Z,102146.56
2022-12-18T04:34:16.702Z,102152.78
2022-12-18T04:36:43.517Z,102172.91
2022-12-18T04:39:10.764Z,102181.69
2022-12-18T04:41:37.536Z,102186.09
2022-12-18T04:44:05.377Z,102198.38
2022-12-18T04:46:36.446Z,102202.78
2022-12-18T04:49:03.433Z,102201.94
2022-12-18T04:51:30.379Z,102206.34
2022-12-18T04:53:57.471Z,102192.38
2022-12-18T04:56:24.857Z,102208.09
2022-12-18T04:58:51.593Z,102190.59
2022-12-18T05:01:19.804Z,102203.69
2022-12-18T05:03:49.901Z,102192.31
2022-12-18T05:06:16.837Z,102189.72
2022-12-18T05:08:43.572Z,102173.06
2022-12-18T05:11:16.659Z,102178.31
2022-12-18T05:13:48.453Z,102189.69
2022-12-18T05:16:15.843Z,102182.72
2022-12-18T05:18:43.244Z,102189.72
2022-12-18T05:21:13.309Z,102193.22
2022-12-18T05:23:40.461Z,102194.97
2022-12-18T05:26:08.898Z,102204.63
2022-12-18T05:28:37.598Z,102203.81
2022-12-18T05:31:06.537Z,102215.16
2022-12-18T05:33:36.374Z,102202.03
2022-12-18T05:36:09.885Z,102196.78
2022-12-18T05:38:40.325Z,102196.78
2022-12-18T05:41:10.664Z,102195.97
2022-12-18T05:43:43.000Z,102204.66
2022-12-18T05:46:17.296Z,102202.09
2022-12-18T05:48:48.601Z,102200.31
2022-12-18T05:51:20.319Z,102199.44
2022-12-18T05:53:52.913Z,102204.69
2022-12-18T05:56:23.942Z,102199.47
2022-12-18T05:58:55.210Z,102200.31
2022-12-18T06:01:27.627Z,102209.06
2022-12-18T06:03:55.185Z,102202.09
2022-12-18T06:06:28.001Z,102209.97
2022-12-18T06:08:56.716Z,102216.09
2022-12-18T06:11:30.545Z,102207.38
2022-12-18T06:13:59.030Z,102212.63
2022-12-18T06:16:28.505Z,102214.38
2022-12-18T06:19:02.800Z,102208.25
2022-12-18T06:21:39.185Z,102223.16
2022-12-18T06:24:09.405Z,102224.91
2022-12-18T06:26:40.218Z,102213.50
2022-12-18T06:29:07.428Z,102217.03
2022-12-18T06:31:37.126Z,102213.53
2022-12-18T10:45:57.236Z,102324.19
2022-12-18T10:48:58.755Z,102333.78
2022-12-18T10:55:02.554Z,102339.09
2022-12-18T10:58:40.709Z,102331.25
2022-12-18T11:04:54.207Z,102339.16
2022-12-18T11:12:56.451Z,102330.28
2022-12-18T11:15:33.243Z,102337.13
2022-12-18T11:46:20.125Z,102304.84
2022-12-18T11:49:27.918Z,102312.81
2022-12-18T11:52:10.914Z,102326.84
2022-12-18T11:54:38.437Z,102309.19
2022-12-18T11:57:46.172Z,102325.00
2022-12-18T12:00:31.932Z,102312.78
2022-12-18T12:03:34.384Z,102320.56
2022-12-18T12:06:41.838Z,102320.66
2022-12-18T12:09:31.602Z,102316.13
2022-12-18T12:12:48.873Z,102302.00
2022-12-18T19:43:06.602Z,101857.53
2022-12-18T19:45:35.837Z,101857.50
2022-12-18T19:48:04.602Z,101848.75
2022-12-18T19:50:32.633Z,101843.47
2022-12-18T19:53:00.884Z,101827.50
2022-12-18T19:55:27.652Z,101824.84
2022-12-18T19:57:54.244Z,101823.06
2022-12-18T20:00:21.125Z,101804.53
2022-12-18T20:02:50.845Z,101815.09
2022-12-18T20:05:22.220Z,101801.88
2022-12-18T20:21:25.455Z,101767.44
2022-12-18T22:43:52.246Z,101640.25
2022-12-18T22:46:26.065Z,101638.31
2022-12-18T22:48:53.473Z,101638.31
2022-12-18T22:51:24.219Z,101605.81
2022-12-18T22:53:51.106Z,101601.25
2022-12-18T22:56:21.267Z,101566.81
2022-12-18T22:58:52.589Z,101578.44
2022-12-18T23:01:30.490Z,101577.63
2022-12-18T23:04:01.618Z,101579.53
2022-12-18T23:06:28.942Z,101585.66
2022-12-18T23:08:59.082Z,101559.25
2022-12-18T23:11:26.889Z,101551.25
2022-12-18T23:13:55.680Z,101547.03
2022-12-18T23:16:24.607Z,101551.47
2022-12-18T23:18:57.309Z,101539.38
2022-12-18T23:21:27.784Z,101533.28
2022-12-18T23:23:56.131Z,101534.13
2022-12-18T23:26:26.587Z,101528.03
2022-12-18T23:28:56.542Z,101525.22
2022-12-18T23:31:32.278Z,101528.63
2022-12-18T23:34:03.711Z,101511.00
2022-12-18T23:36:31.838Z,101494.28
2022-12-18T23:39:29.379Z,101494.28
2022-12-18T23:42:00.973Z,101487.34
2022-12-18T23:44:28.289Z,101501.22
2022-12-18T23:46:55.671Z,101508.59
2022-12-18T23:49:23.062Z,101496.91
2022-12-18T23:51:50.508Z,101493.72
2022-12-18T23:54:22.722Z,101482.25
2022-12-18T23:56:59.678Z,101484.06
2022-12-18T23:59:26.498Z,101478.72
